sensor_id;sensor_type;location;lat;lon;timestamp;temperature;humidity
13744;DHT22;6943;52.368;9.966;2022-11-18T00:00:12;5.10;99.90
13744;DHT22;6943;52.368;9.966;2022-11-18T00:02:38;5.10;99.90
13744;DHT22;6943;52.368;9.966;2022-11-18T00:05:03;5.00;99.90
13744;DHT22;6943;52.368;9.966;2022-11-18T00:07:29;5.00;99.90
13744;DHT22;6943;52.368;9.966;2022-11-18T00:09:54;5.00;99.90
13744;DHT22;6943;52.368;9.966;2022-11-18T00:12:20;5.10;99.90
13744;DHT22;6943;52.368;9.966;2022-11-18T00:15:04;5.00;99.90
13744;DHT22;6943;52.368;9.966;2022-11-18T00:17:31;5.00;99.90
13744;DHT22;6943;52.368;9.966;2022-11-18T00:19:57;5.00;99.90
13744;DHT22;6943;52.368;9.966;2022-11-18T00:22:22;5.00;99.90
13744;DHT22;6943;52.368;9.966;2022-11-18T00:24:47;5.00;99.90
13744;DHT22;6943;52.368;9.966;2022-11-18T00:27:13;5.00;99.90
13744;DHT22;6943;52.368;9.966;2022-11-18T00:29:38;5.00;99.90
13744;DHT22;6943;52.368;9.966;2022-11-18T00:32:04;5.00;99.90
13744;DHT22;6943;52.368;9.966;2022-11-18T00:34:30;5.00;99.90
13744;DHT22;6943;52.368;9.966;2022-11-18T00:36:55;5.00;99.90
13744;DHT22;6943;52.368;9.966;2022-11-18T00:39:21;4.90;99.90
13744;DHT22;6943;52.368;9.966;2022-11-18T00:41:47;4.90;99.90
13744;DHT22;6943;52.368;9.966;2022-11-18T00:44:31;4.90;99.90
13744;DHT22;6943;52.368;9.966;2022-11-18T00:46:57;4.90;99.90
13744;DHT22;6943;52.368;9.966;2022-11-18T00:49:23;4.90;99.90
13744;DHT22;6943;52.368;9.966;2022-11-18T00:51:48;4.90;99.90
13744;DHT22;6943;52.368;9.966;2022-11-18T00:54:14;4.90;99.90
13744;DHT22;6943;52.368;9.966;2022-11-18T00:56:40;4.90;99.90
13744;DHT22;6943;52.368;9.966;2022-11-18T00:59:05;4.80;99.90
13744;DHT22;6943;52.368;9.966;2022-11-18T01:01:31;4.90;99.90
13744;DHT22;6943;52.368;9.966;2022-11-18T01:03:56;4.90;99.90
13744;DHT22;6943;52.368;9.966;2022-11-18T01:06:22;4.90;99.90
13744;DHT22;6943;52.368;9.966;2022-11-18T01:08:47;4.90;99.90
13744;DHT22;6943;52.368;9.966;2022-11-18T01:11:13;4.90;99.90
13744;DHT22;6943;52.368;9.966;2022-11-18T01:13:57;4.90;99.90
13744;DHT22;6943;52.368;9.966;2022-11-18T01:16:25;4.90;99.90
13744;DHT22;6943;52.368;9.966;2022-11-18T01:18:51;4.90;99.90
13744;DHT22;6943;52.368;9.966;2022-11-18T01:21:17;4.90;99.90
13744;DHT22;6943;52.368;9.966;2022-11-18T01:23:43;4.90;99.90
13744;DHT22;6943;52.368;9.966;2022-11-18T01:26:10;4.90;99.90
13744;DHT22;6943;52.368;9.966;2022-11-18T01:28:36;4.90;99.90
13744;DHT22;6943;52.368;9.966;2022-11-18T01:31:17;4.90;99.90
13744;DHT22;6943;52.368;9.966;2022-11-18T01:33:43;4.90;99.90
13744;DHT22;6943;52.368;9.966;2022-11-18T01:36:27;5.00;99.90
13744;DHT22;6943;52.368;9.966;2022-11-18T01:38:54;5.00;99.90
13744;DHT22;6943;52.368;9.966;2022-11-18T01:41:22;5.00;99.90
13744;DHT22;6943;52.368;9.966;2022-11-18T01:44:04;5.00;99.90
13744;DHT22;6943;52.368;9.966;2022-11-18T01:46:32;5.00;99.90
13744;DHT22;6943;52.368;9.966;2022-11-18T01:49:09;5.00;99.90
13744;DHT22;6943;52.368;9.966;2022-11-18T01:51:48;4.90;99.90
13744;DHT22;6943;52.368;9.966;2022-11-18T01:54:20;4.90;99.90
13744;DHT22;6943;52.368;9.966;2022-11-18T01:56:51;4.90;99.90
13744;DHT22;6943;52.368;9.966;2022-11-18T01:59:21;4.80;99.90
13744;DHT22;6943;52.368;9.966;2022-11-18T02:01:48;4.80;99.90
13744;DHT22;6943;52.368;9.966;2022-11-18T02:04:14;4.80;99.90
13744;DHT22;6943;52.368;9.966;2022-11-18T02:06:41;4.80;99.90
13744;DHT22;6943;52.368;9.966;2022-11-18T02:09:08;4.80;99.90
13744;DHT22;6943;52.368;9.966;2022-11-18T02:11:33;4.80;99.90
13744;DHT22;6943;52.368;9.966;2022-11-18T02:14:20;4.80;99.90
13744;DHT22;6943;52.368;9.966;2022-11-18T02:17:05;4.80;99.90
13744;DHT22;6943;52.368;9.966;2022-11-18T02:19:48;4.80;99.90
13744;DHT22;6943;52.368;9.966;2022-11-18T02:25:46;4.80;99.90
13744;DHT22;6943;52.368;9.966;2022-11-18T02:29:06;4.80;99.90
13744;DHT22;6943;52.368;9.966;2022-11-18T02:34:38;4.80;99.90
13744;DHT22;6943;52.368;9.966;2022-11-18T02:37:12;4.70;99.90
13744;DHT22;6943;52.368;9.966;2022-11-18T02:39:52;4.70;99.90
13744;DHT22;6943;52.368;9.966;2022-11-18T02:42:20;4.50;99.90
13744;DHT22;6943;52.368;9.966;2022-11-18T02:44:51;4.50;99.90
13744;DHT22;6943;52.368;9.966;2022-11-18T02:47:20;4.50;99.90
13744;DHT22;6943;52.368;9.966;2022-11-18T02:49:50;4.50;99.90
13744;DHT22;6943;52.368;9.966;2022-11-18T02:52:17;4.50;99.90
13744;DHT22;6943;52.368;9.966;2022-11-18T02:54:46;4.50;99.90
13744;DHT22;6943;52.368;9.966;2022-11-18T02:57:14;4.40;99.90
13744;DHT22;6943;52.368;9.966;2022-11-18T02:59:40;4.30;99.90
13744;DHT22;6943;52.368;9.966;2022-11-18T03:02:05;4.30;99.90
13744;DHT22;6943;52.368;9.966;2022-11-18T03:04:32;4.30;99.90
13744;DHT22;6943;52.368;9.966;2022-11-18T03:07:14;4.30;99.90
13744;DHT22;6943;52.368;9.966;2022-11-18T03:09:45;4.20;99.90
13744;DHT22;6943;52.368;9.966;2022-11-18T03:17:54;4.20;99.90
13744;DHT22;6943;52.368;9.966;2022-11-18T03:20:35;4.20;99.90
13744;DHT22;6943;52.368;9.966;2022-11-18T03:23:13;4.20;99.90
13744;DHT22;6943;52.368;9.966;2022-11-18T03:25:47;4.10;99.90
13744;DHT22;6943;52.368;9.966;2022-11-18T03:28:23;4.10;99.90
13744;DHT22;6943;52.368;9.966;2022-11-18T03:31:02;4.10;99.90
13744;DHT22;6943;52.368;9.966;2022-11-18T03:33:38;4.10;99.90
13744;DHT22;6943;52.368;9.966;2022-11-18T03:36:09;4.10;99.90
13744;DHT22;6943;52.368;9.966;2022-11-18T03:38:38;4.10;99.90
13744;DHT22;6943;52.368;9.966;2022-11-18T03:41:08;4.10;99.90
13744;DHT22;6943;52.368;9.966;2022-11-18T03:43:39;4.10;99.90
13744;DHT22;6943;52.368;9.966;2022-11-18T03:46:20;4.10;99.90
13744;DHT22;6943;52.368;9.966;2022-11-18T03:48:51;4.00;99.90
13744;DHT22;6943;52.368;9.966;2022-11-18T03:51:23;4.00;99.90
13744;DHT22;6943;52.368;9.966;2022-11-18T03:53:55;4.10;99.90
13744;DHT22;6943;52.368;9.966;2022-11-18T03:56:25;4.10;99.90
13744;DHT22;6943;52.368;9.966;2022-11-18T03:59:02;4.00;99.90
13744;DHT22;6943;52.368;9.966;2022-11-18T04:01:53;3.90;99.90
13744;DHT22;6943;52.368;9.966;2022-11-18T04:04:21;3.90;99.90
13744;DHT22;6943;52.368;9.966;2022-11-18T04:07:32;3.90;99.90
13744;DHT22;6943;52.368;9.966;2022-11-18T04:13:12;3.90;99.90
13744;DHT22;6943;52.368;9.966;2022-11-18T04:15:41;3.90;99.90
13744;DHT22;6943;52.368;9.966;2022-11-18T04:18:07;3.90;99.90
13744;DHT22;6943;52.368;9.966;2022-11-18T04:20:32;3.90;99.90
13744;DHT22;6943;52.368;9.966;2022-11-18T04:22:59;3.80;99.90
13744;DHT22;6943;52.368;9.966;2022-11-18T04:25:25;3.80;99.90
13744;DHT22;6943;52.368;9.966;2022-11-18T04:27:50;3.80;99.90
13744;DHT22;6943;52.368;9.966;2022-11-18T04:30:17;4.40;99.90
13744;DHT22;6943;52.368;9.966;2022-11-18T04:32:43;3.70;99.90
13744;DHT22;6943;52.368;9.966;2022-11-18T04:35:08;3.60;99.90
13744;DHT22;6943;52.368;9.966;2022-11-18T04:37:34;3.60;99.90
13744;DHT22;6943;52.368;9.966;2022-11-18T04:40:00;3.70;99.90
13744;DHT22;6943;52.368;9.966;2022-11-18T04:42:25;3.70;99.90
13744;DHT22;6943;52.368;9.966;2022-11-18T04:44:51;3.60;99.90
13744;DHT22;6943;52.368;9.966;2022-11-18T04:47:16;3.60;99.90
13744;DHT22;6943;52.368;9.966;2022-11-18T04:49:42;3.60;99.90
13744;DHT22;6943;52.368;9.966;2022-11-18T04:52:08;3.60;99.90
13744;DHT22;6943;52.368;9.966;2022-11-18T04:54:33;3.60;99.90
13744;DHT22;6943;52.368;9.966;2022-11-18T04:56:59;3.70;99.90
13744;DHT22;6943;52.368;9.966;2022-11-18T04:59:26;3.60;99.90
13744;DHT22;6943;52.368;9.966;2022-11-18T05:01:53;3.60;99.90
13744;DHT22;6943;52.368;9.966;2022-11-18T05:04:21;3.60;99.90
13744;DHT22;6943;52.368;9.966;2022-11-18T05:06:47;3.60;99.90
13744;DHT22;6943;52.368;9.966;2022-11-18T05:09:12;3.50;99.90
13744;DHT22;6943;52.368;9.966;2022-11-18T05:11:38;3.50;99.90
13744;DHT22;6943;52.368;9.966;2022-11-18T05:14:26;3.50;99.90
13744;DHT22;6943;52.368;9.966;2022-11-18T05:16:53;3.60;99.90
13744;DHT22;6943;52.368;9.966;2022-11-18T05:19:19;3.70;99.90
13744;DHT22;6943;52.368;9.966;2022-11-18T05:21:45;3.70;99.90
13744;DHT22;6943;52.368;9.966;2022-11-18T05:24:10;3.60;99.90
13744;DHT22;6943;52.368;9.966;2022-11-18T05:26:36;3.60;99.90
13744;DHT22;6943;52.368;9.966;2022-11-18T05:29:01;3.60;99.90
13744;DHT22;6943;52.368;9.966;2022-11-18T05:31:27;3.50;99.90
13744;DHT22;6943;52.368;9.966;2022-11-18T05:33:53;3.40;99.90
13744;DHT22;6943;52.368;9.966;2022-11-18T05:36:20;3.40;99.90
13744;DHT22;6943;52.368;9.966;2022-11-18T05:38:45;3.40;99.90
13744;DHT22;6943;52.368;9.966;2022-11-18T05:41:11;3.40;99.90
13744;DHT22;6943;52.368;9.966;2022-11-18T05:44:00;3.40;99.90
13744;DHT22;6943;52.368;9.966;2022-11-18T05:46:26;3.40;99.90
13744;DHT22;6943;52.368;9.966;2022-11-18T05:48:52;3.40;99.90
13744;DHT22;6943;52.368;9.966;2022-11-18T05:51:17;3.40;99.90
13744;DHT22;6943;52.368;9.966;2022-11-18T05:53:43;3.50;99.90
13744;DHT22;6943;52.368;9.966;2022-11-18T05:58:47;3.40;99.90
13744;DHT22;6943;52.368;9.966;2022-11-18T06:01:24;3.40;99.90
13744;DHT22;6943;52.368;9.966;2022-11-18T06:03:50;3.40;99.90
13744;DHT22;6943;52.368;9.966;2022-11-18T06:06:17;3.40;99.90
13744;DHT22;6943;52.368;9.966;2022-11-18T06:09:05;3.40;99.90
13744;DHT22;6943;52.368;9.966;2022-11-18T06:11:39;3.40;99.90
13744;DHT22;6943;52.368;9.966;2022-11-18T06:14:14;3.40;99.90
13744;DHT22;6943;52.368;9.966;2022-11-18T06:16:49;3.40;99.90
13744;DHT22;6943;52.368;9.966;2022-11-18T06:19:16;3.40;99.90
13744;DHT22;6943;52.368;9.966;2022-11-18T06:21:42;3.40;99.90
13744;DHT22;6943;52.368;9.966;2022-11-18T06:24:08;3.30;99.90
13744;DHT22;6943;52.368;9.966;2022-11-18T06:26:35;3.30;99.90
13744;DHT22;6943;52.368;9.966;2022-11-18T06:29:01;3.30;99.90
13744;DHT22;6943;52.368;9.966;2022-11-18T06:31:27;3.30;99.90
13744;DHT22;6943;52.368;9.966;2022-11-18T06:33:52;3.30;99.90
13744;DHT22;6943;52.368;9.966;2022-11-18T06:36:18;3.30;99.90
13744;DHT22;6943;52.368;9.966;2022-11-18T06:38:43;3.30;99.90
13744;DHT22;6943;52.368;9.966;2022-11-18T06:41:09;5.10;99.90
13744;DHT22;6943;52.368;9.966;2022-11-18T06:43:35;3.30;99.90
13744;DHT22;6943;52.368;9.966;2022-11-18T06:46:05;3.30;99.90
13744;DHT22;6943;52.368;9.966;2022-11-18T06:48:50;3.50;99.90
13744;DHT22;6943;52.368;9.966;2022-11-18T06:51:16;3.30;99.90
13744;DHT22;6943;52.368;9.966;2022-11-18T06:53:41;3.90;99.90
13744;DHT22;6943;52.368;9.966;2022-11-18T06:56:10;3.20;99.90
13744;DHT22;6943;52.368;9.966;2022-11-18T06:58:37;3.30;99.90
13744;DHT22;6943;52.368;9.966;2022-11-18T07:01:31;3.30;99.90
13744;DHT22;6943;52.368;9.966;2022-11-18T07:03:59;3.30;99.90
13744;DHT22;6943;52.368;9.966;2022-11-18T07:06:27;3.20;99.90
13744;DHT22;6943;52.368;9.966;2022-11-18T07:08:53;3.20;99.90
13744;DHT22;6943;52.368;9.966;2022-11-18T07:11:21;3.10;99.90
13744;DHT22;6943;52.368;9.966;2022-11-18T07:13:47;3.10;99.90
13744;DHT22;6943;52.368;9.966;2022-11-18T07:16:15;3.10;99.90
13744;DHT22;6943;52.368;9.966;2022-11-18T07:18:42;3.10;99.90
13744;DHT22;6943;52.368;9.966;2022-11-18T07:21:10;3.20;99.90
13744;DHT22;6943;52.368;9.966;2022-11-18T07:23:36;3.20;99.90
13744;DHT22;6943;52.368;9.966;2022-11-18T07:26:02;3.10;99.90
13744;DHT22;6943;52.368;9.966;2022-11-18T07:28:29;3.00;99.90
13744;DHT22;6943;52.368;9.966;2022-11-18T07:31:12;3.00;99.90
13744;DHT22;6943;52.368;9.966;2022-11-18T07:33:39;3.10;99.90
13744;DHT22;6943;52.368;9.966;2022-11-18T07:36:12;3.10;99.90
13744;DHT22;6943;52.368;9.966;2022-11-18T07:38:38;3.10;99.90
13744;DHT22;6943;52.368;9.966;2022-11-18T07:41:06;3.10;99.90
13744;DHT22;6943;52.368;9.966;2022-11-18T07:43:34;3.10;99.90
13744;DHT22;6943;52.368;9.966;2022-11-18T07:46:10;3.00;99.90
13744;DHT22;6943;52.368;9.966;2022-11-18T07:48:35;3.00;99.90
13744;DHT22;6943;52.368;9.966;2022-11-18T07:51:01;3.00;99.90
13744;DHT22;6943;52.368;9.966;2022-11-18T07:53:29;2.20;99.90
13744;DHT22;6943;52.368;9.966;2022-11-18T07:55:56;3.00;99.90
13744;DHT22;6943;52.368;9.966;2022-11-18T07:58:21;2.90;99.90
13744;DHT22;6943;52.368;9.966;2022-11-18T08:00:47;2.90;99.90
13744;DHT22;6943;52.368;9.966;2022-11-18T08:03:12;2.90;99.90
13744;DHT22;6943;52.368;9.966;2022-11-18T08:05:38;2.90;99.90
13744;DHT22;6943;52.368;9.966;2022-11-18T08:08:03;2.80;99.90
13744;DHT22;6943;52.368;9.966;2022-11-18T08:10:29;2.90;99.90
13744;DHT22;6943;52.368;9.966;2022-11-18T08:12:55;2.60;99.90
13744;DHT22;6943;52.368;9.966;2022-11-18T08:15:21;2.80;99.90
13744;DHT22;6943;52.368;9.966;2022-11-18T08:17:47;2.90;99.90
13744;DHT22;6943;52.368;9.966;2022-11-18T08:20:12;2.90;99.90
13744;DHT22;6943;52.368;9.966;2022-11-18T08:22:38;2.90;99.90
13744;DHT22;6943;52.368;9.966;2022-11-18T08:25:04;2.90;99.90
13744;DHT22;6943;52.368;9.966;2022-11-18T08:27:30;2.90;99.90
13744;DHT22;6943;52.368;9.966;2022-11-18T08:29:56;2.90;99.90
13744;DHT22;6943;52.368;9.966;2022-11-18T08:32:21;2.90;99.90
13744;DHT22;6943;52.368;9.966;2022-11-18T08:34:47;2.90;99.90
13744;DHT22;6943;52.368;9.966;2022-11-18T08:37:12;2.90;99.90
13744;DHT22;6943;52.368;9.966;2022-11-18T08:39:38;2.80;99.90
13744;DHT22;6943;52.368;9.966;2022-11-18T08:42:04;2.70;99.90
13744;DHT22;6943;52.368;9.966;2022-11-18T08:44:29;2.70;99.90
13744;DHT22;6943;52.368;9.966;2022-11-18T08:46:57;2.60;99.90
13744;DHT22;6943;52.368;9.966;2022-11-18T08:49:23;2.60;99.90
13744;DHT22;6943;52.368;9.966;2022-11-18T08:51:48;2.60;99.90
13744;DHT22;6943;52.368;9.966;2022-11-18T08:54:14;2.60;99.90
13744;DHT22;6943;52.368;9.966;2022-11-18T08:56:40;2.60;99.90
13744;DHT22;6943;52.368;9.966;2022-11-18T08:59:05;2.60;99.90
13744;DHT22;6943;52.368;9.966;2022-11-18T09:01:31;2.50;99.90
13744;DHT22;6943;52.368;9.966;2022-11-18T09:03:56;2.50;99.90
13744;DHT22;6943;52.368;9.966;2022-11-18T09:06:22;2.40;99.90
13744;DHT22;6943;52.368;9.966;2022-11-18T09:08:49;2.50;99.90
13744;DHT22;6943;52.368;9.966;2022-11-18T09:11:17;2.40;99.90
13744;DHT22;6943;52.368;9.966;2022-11-18T09:13:43;2.40;99.90
13744;DHT22;6943;52.368;9.966;2022-11-18T09:16:08;2.40;99.90
13744;DHT22;6943;52.368;9.966;2022-11-18T09:18:34;2.50;99.90
13744;DHT22;6943;52.368;9.966;2022-11-18T09:21:02;2.40;99.90
13744;DHT22;6943;52.368;9.966;2022-11-18T09:23:30;2.30;99.90
13744;DHT22;6943;52.368;9.966;2022-11-18T09:26:01;2.30;99.90
13744;DHT22;6943;52.368;9.966;2022-11-18T09:28:27;2.30;99.90
13744;DHT22;6943;52.368;9.966;2022-11-18T09:30:53;2.20;99.90
13744;DHT22;6943;52.368;9.966;2022-11-18T09:33:19;2.20;99.90
13744;DHT22;6943;52.368;9.966;2022-11-18T09:35:44;2.20;99.90
13744;DHT22;6943;52.368;9.966;2022-11-18T09:38:10;2.10;99.90
13744;DHT22;6943;52.368;9.966;2022-11-18T09:46:05;2.20;99.90
13744;DHT22;6943;52.368;9.966;2022-11-18T09:48:35;2.30;99.90
13744;DHT22;6943;52.368;9.966;2022-11-18T09:51:20;2.30;99.90
13744;DHT22;6943;52.368;9.966;2022-11-18T09:53:49;2.10;99.90
13744;DHT22;6943;52.368;9.966;2022-11-18T09:56:15;2.10;99.90
13744;DHT22;6943;52.368;9.966;2022-11-18T09:58:41;2.20;99.90
13744;DHT22;6943;52.368;9.966;2022-11-18T10:01:15;2.20;99.90
13744;DHT22;6943;52.368;9.966;2022-11-18T10:03:42;2.20;99.90
13744;DHT22;6943;52.368;9.966;2022-11-18T10:08:59;2.20;99.90
13744;DHT22;6943;52.368;9.966;2022-11-18T10:23:01;2.30;99.90
13744;DHT22;6943;52.368;9.966;2022-11-18T10:25:27;2.20;99.90
13744;DHT22;6943;52.368;9.966;2022-11-18T10:27:54;2.10;94.70
13744;DHT22;6943;52.368;9.966;2022-11-18T10:30:23;2.00;99.90
13744;DHT22;6943;52.368;9.966;2022-11-18T10:35:30;1.90;42.20
13744;DHT22;6943;52.368;9.966;2022-11-18T10:40:57;2.00;1.00
13744;DHT22;6943;52.368;9.966;2022-11-18T10:43:43;2.10;1.00
13744;DHT22;6943;52.368;9.966;2022-11-18T10:51:36;2.00;1.00
13744;DHT22;6943;52.368;9.966;2022-11-18T10:54:12;1.90;1.00
13744;DHT22;6943;52.368;9.966;2022-11-18T10:57:04;1.90;1.00
13744;DHT22;6943;52.368;9.966;2022-11-18T10:59:49;1.90;1.00
13744;DHT22;6943;52.368;9.966;2022-11-18T11:02:27;1.80;1.00
13744;DHT22;6943;52.368;9.966;2022-11-18T11:04:58;1.80;99.90
13744;DHT22;6943;52.368;9.966;2022-11-18T11:12:52;1.70;1.00
13744;DHT22;6943;52.368;9.966;2022-11-18T11:15:40;1.80;29.50
13744;DHT22;6943;52.368;9.966;2022-11-18T11:18:22;1.80;1.00
13744;DHT22;6943;52.368;9.966;2022-11-18T11:21:17;1.90;1.00
13744;DHT22;6943;52.368;9.966;2022-11-18T11:23:44;1.90;1.00
13744;DHT22;6943;52.368;9.966;2022-11-18T11:26:33;2.00;1.00
13744;DHT22;6943;52.368;9.966;2022-11-18T11:29:15;2.00;1.00
13744;DHT22;6943;52.368;9.966;2022-11-18T11:31:56;2.00;1.00
13744;DHT22;6943;52.368;9.966;2022-11-18T11:34:33;2.00;1.00
13744;DHT22;6943;52.368;9.966;2022-11-18T11:44:58;1.70;1.00
13744;DHT22;6943;52.368;9.966;2022-11-18T11:47:41;1.70;75.80
13744;DHT22;6943;52.368;9.966;2022-11-18T11:50:28;1.80;25.80
13744;DHT22;6943;52.368;9.966;2022-11-18T11:58:36;1.40;1.00
13744;DHT22;6943;52.368;9.966;2022-11-18T12:01:17;1.70;1.00
13744;DHT22;6943;52.368;9.966;2022-11-18T12:03:46;1.70;1.00
13744;DHT22;6943;52.368;9.966;2022-11-18T12:06:14;1.50;1.00
13744;DHT22;6943;52.368;9.966;2022-11-18T12:09:06;3.50;1.00
13744;DHT22;6943;52.368;9.966;2022-11-18T12:11:45;3.30;1.00
13744;DHT22;6943;52.368;9.966;2022-11-18T12:14:29;1.60;99.90
13744;DHT22;6943;52.368;9.966;2022-11-18T12:19:37;1.70;1.00
13744;DHT22;6943;52.368;9.966;2022-11-18T12:22:03;1.60;1.00
13744;DHT22;6943;52.368;9.966;2022-11-18T12:24:36;1.60;99.90
13744;DHT22;6943;52.368;9.966;2022-11-18T12:34:57;1.60;1.00
13744;DHT22;6943;52.368;9.966;2022-11-18T12:42:41;1.70;1.00
13744;DHT22;6943;52.368;9.966;2022-11-18T12:48:30;1.70;99.90
13744;DHT22;6943;52.368;9.966;2022-11-18T12:56:22;1.60;1.00
13744;DHT22;6943;52.368;9.966;2022-11-18T12:58:50;-0.90;1.00
13744;DHT22;6943;52.368;9.966;2022-11-18T13:01:19;1.50;1.00
13744;DHT22;6943;52.368;9.966;2022-11-18T13:03:45;1.50;1.00
13744;DHT22;6943;52.368;9.966;2022-11-18T13:09:38;1.50;99.90
13744;DHT22;6943;52.368;9.966;2022-11-18T13:11:53;1.50;1.00
13744;DHT22;6943;52.368;9.966;2022-11-18T13:17:29;1.60;1.00
13744;DHT22;6943;52.368;9.966;2022-11-18T13:20:37;1.40;1.00
13744;DHT22;6943;52.368;9.966;2022-11-18T13:26:01;1.10;99.90
13744;DHT22;6943;52.368;9.966;2022-11-18T13:31:06;1.10;99.90
13744;DHT22;6943;52.368;9.966;2022-11-18T13:33:37;1.50;1.00
13744;DHT22;6943;52.368;9.966;2022-11-18T13:36:24;1.60;99.90
13744;DHT22;6943;52.368;9.966;2022-11-18T13:38:58;1.50;1.00
13744;DHT22;6943;52.368;9.966;2022-11-18T13:41:25;1.40;1.00
13744;DHT22;6943;52.368;9.966;2022-11-18T13:44:18;1.80;99.90
13744;DHT22;6943;52.368;9.966;2022-11-18T13:46:48;1.30;99.90
13744;DHT22;6943;52.368;9.966;2022-11-18T13:49:19;1.30;1.00
13744;DHT22;6943;52.368;9.966;2022-11-18T13:51:45;1.30;1.00
13744;DHT22;6943;52.368;9.966;2022-11-18T13:54:14;1.20;99.90
13744;DHT22;6943;52.368;9.966;2022-11-18T13:56:43;1.30;13.60
13744;DHT22;6943;52.368;9.966;2022-11-18T13:59:21;1.20;1.00
13744;DHT22;6943;52.368;9.966;2022-11-18T14:01:53;1.20;1.00
13744;DHT22;6943;52.368;9.966;2022-11-18T14:04:29;1.30;1.00
13744;DHT22;6943;52.368;9.966;2022-11-18T14:07:22;1.20;1.00
13744;DHT22;6943;52.368;9.966;2022-11-18T14:09:57;3.80;1.00
13744;DHT22;6943;52.368;9.966;2022-11-18T14:12:26;1.30;99.90
13744;DHT22;6943;52.368;9.966;2022-11-18T14:15:15;1.30;1.00
13744;DHT22;6943;52.368;9.966;2022-11-18T14:17:56;1.40;99.90
13744;DHT22;6943;52.368;9.966;2022-11-18T14:20:24;1.30;99.90
13744;DHT22;6943;52.368;9.966;2022-11-18T14:23:29;1.30;1.00
13744;DHT22;6943;52.368;9.966;2022-11-18T14:26:04;1.40;1.00
13744;DHT22;6943;52.368;9.966;2022-11-18T14:28:31;-0.20;1.00
13744;DHT22;6943;52.368;9.966;2022-11-18T14:33:41;1.30;1.00
13744;DHT22;6943;52.368;9.966;2022-11-18T14:36:14;1.30;99.90
13744;DHT22;6943;52.368;9.966;2022-11-18T14:38:46;1.30;1.00
13744;DHT22;6943;52.368;9.966;2022-11-18T14:41:14;1.30;99.90
13744;DHT22;6943;52.368;9.966;2022-11-18T14:43:41;1.20;1.00
13744;DHT22;6943;52.368;9.966;2022-11-18T14:46:14;1.20;1.00
13744;DHT22;6943;52.368;9.966;2022-11-18T14:48:41;1.20;1.00
13744;DHT22;6943;52.368;9.966;2022-11-18T14:51:11;1.20;1.00
13744;DHT22;6943;52.368;9.966;2022-11-18T14:53:36;1.10;1.00
13744;DHT22;6943;52.368;9.966;2022-11-18T14:56:02;1.40;1.00
13744;DHT22;6943;52.368;9.966;2022-11-18T14:58:28;1.10;99.90
13744;DHT22;6943;52.368;9.966;2022-11-18T15:00:54;1.10;1.00
13744;DHT22;6943;52.368;9.966;2022-11-18T15:03:19;1.00;99.90
13744;DHT22;6943;52.368;9.966;2022-11-18T15:05:45;1.00;1.00
13744;DHT22;6943;52.368;9.966;2022-11-18T15:08:10;1.00;99.90
13744;DHT22;6943;52.368;9.966;2022-11-18T15:10:36;0.90;1.00
13744;DHT22;6943;52.368;9.966;2022-11-18T15:13:02;0.80;1.00
13744;DHT22;6943;52.368;9.966;2022-11-18T15:15:27;0.80;1.00
13744;DHT22;6943;52.368;9.966;2022-11-18T15:17:53;0.80;1.00
13744;DHT22;6943;52.368;9.966;2022-11-18T15:20:20;0.70;99.90
13744;DHT22;6943;52.368;9.966;2022-11-18T15:22:46;0.70;1.00
13744;DHT22;6943;52.368;9.966;2022-11-18T15:25:11;0.70;1.00
13744;DHT22;6943;52.368;9.966;2022-11-18T15:27:37;0.60;1.00
13744;DHT22;6943;52.368;9.966;2022-11-18T15:30:03;0.60;1.00
13744;DHT22;6943;52.368;9.966;2022-11-18T15:32:29;0.60;1.00
13744;DHT22;6943;52.368;9.966;2022-11-18T15:34:55;0.60;99.90
13744;DHT22;6943;52.368;9.966;2022-11-18T15:37:20;0.60;99.90
13744;DHT22;6943;52.368;9.966;2022-11-18T15:39:46;0.50;99.90
13744;DHT22;6943;52.368;9.966;2022-11-18T15:42:17;0.50;99.90
13744;DHT22;6943;52.368;9.966;2022-11-18T15:44:44;0.60;99.90
13744;DHT22;6943;52.368;9.966;2022-11-18T15:47:10;0.60;1.00
13744;DHT22;6943;52.368;9.966;2022-11-18T15:49:35;0.60;99.90
13744;DHT22;6943;52.368;9.966;2022-11-18T15:52:01;0.60;99.90
13744;DHT22;6943;52.368;9.966;2022-11-18T15:54:26;0.50;1.00
13744;DHT22;6943;52.368;9.966;2022-11-18T15:56:52;0.50;1.00
13744;DHT22;6943;52.368;9.966;2022-11-18T15:59:17;0.50;99.90
13744;DHT22;6943;52.368;9.966;2022-11-18T16:01:45;0.50;1.00
13744;DHT22;6943;52.368;9.966;2022-11-18T16:04:12;0.40;1.00
13744;DHT22;6943;52.368;9.966;2022-11-18T16:06:38;0.40;99.90
13744;DHT22;6943;52.368;9.966;2022-11-18T16:09:05;0.40;99.90
13744;DHT22;6943;52.368;9.966;2022-11-18T16:11:31;0.30;1.00
13744;DHT22;6943;52.368;9.966;2022-11-18T16:14:17;0.30;1.00
13744;DHT22;6943;52.368;9.966;2022-11-18T16:16:44;0.40;1.00
13744;DHT22;6943;52.368;9.966;2022-11-18T16:19:13;0.40;99.90
13744;DHT22;6943;52.368;9.966;2022-11-18T16:21:41;0.40;1.00
13744;DHT22;6943;52.368;9.966;2022-11-18T16:24:11;0.30;1.00
13744;DHT22;6943;52.368;9.966;2022-11-18T16:26:37;0.40;99.90
13744;DHT22;6943;52.368;9.966;2022-11-18T16:29:04;0.40;1.00
13744;DHT22;6943;52.368;9.966;2022-11-18T16:31:29;0.40;99.90
13744;DHT22;6943;52.368;9.966;2022-11-18T16:34:09;0.40;99.90
13744;DHT22;6943;52.368;9.966;2022-11-18T16:36:36;0.50;1.00
13744;DHT22;6943;52.368;9.966;2022-11-18T16:39:07;0.50;1.00
13744;DHT22;6943;52.368;9.966;2022-11-18T16:41:32;0.50;1.00
13744;DHT22;6943;52.368;9.966;2022-11-18T16:44:00;0.50;99.90
13744;DHT22;6943;52.368;9.966;2022-11-18T16:46:28;0.50;99.90
13744;DHT22;6943;52.368;9.966;2022-11-18T16:48:55;0.50;99.90
13744;DHT22;6943;52.368;9.966;2022-11-18T16:51:23;0.50;99.90
13744;DHT22;6943;52.368;9.966;2022-11-18T16:53:53;0.50;42.30
13744;DHT22;6943;52.368;9.966;2022-11-18T16:56:21;0.50;99.90
13744;DHT22;6943;52.368;9.966;2022-11-18T16:58:47;0.60;99.90
13744;DHT22;6943;52.368;9.966;2022-11-18T17:01:13;0.60;99.90
13744;DHT22;6943;52.368;9.966;2022-11-18T17:03:40;0.60;99.90
13744;DHT22;6943;52.368;9.966;2022-11-18T17:06:05;0.60;1.00
13744;DHT22;6943;52.368;9.966;2022-11-18T17:08:35;0.60;88.60
13744;DHT22;6943;52.368;9.966;2022-11-18T17:11:08;0.50;1.00
13744;DHT22;6943;52.368;9.966;2022-11-18T17:13:35;0.50;1.00
13744;DHT22;6943;52.368;9.966;2022-11-18T17:16:16;0.50;1.00
13744;DHT22;6943;52.368;9.966;2022-11-18T17:18:42;0.50;1.00
13744;DHT22;6943;52.368;9.966;2022-11-18T17:23:38;0.50;1.00
13744;DHT22;6943;52.368;9.966;2022-11-18T17:26:05;0.50;1.00
13744;DHT22;6943;52.368;9.966;2022-11-18T17:28:31;0.50;1.00
13744;DHT22;6943;52.368;9.966;2022-11-18T17:31:10;0.60;1.00
13744;DHT22;6943;52.368;9.966;2022-11-18T17:33:36;0.60;1.00
13744;DHT22;6943;52.368;9.966;2022-11-18T17:38:30;0.50;99.90
13744;DHT22;6943;52.368;9.966;2022-11-18T17:40:57;0.50;99.90
13744;DHT22;6943;52.368;9.966;2022-11-18T17:43:24;0.50;99.90
13744;DHT22;6943;52.368;9.966;2022-11-18T17:45:51;0.50;99.90
13744;DHT22;6943;52.368;9.966;2022-11-18T17:48:18;0.50;99.90
13744;DHT22;6943;52.368;9.966;2022-11-18T17:50:44;0.50;99.90
13744;DHT22;6943;52.368;9.966;2022-11-18T17:53:10;0.50;99.90
13744;DHT22;6943;52.368;9.966;2022-11-18T17:55:35;0.50;57.80
13744;DHT22;6943;52.368;9.966;2022-11-18T17:58:01;0.50;48.80
13744;DHT22;6943;52.368;9.966;2022-11-18T18:00:26;0.50;1.00
13744;DHT22;6943;52.368;9.966;2022-11-18T18:02:53;0.50;1.00
13744;DHT22;6943;52.368;9.966;2022-11-18T18:05:18;0.50;1.00
13744;DHT22;6943;52.368;9.966;2022-11-18T18:07:44;0.50;1.00
13744;DHT22;6943;52.368;9.966;2022-11-18T18:10:12;0.50;1.00
13744;DHT22;6943;52.368;9.966;2022-11-18T18:12:38;0.40;1.00